sensor_id;sensor_type;location;lat;lon;timestamp;pressure;altitude;pressure_sealevel;temperature;humidity
19811;BME280;10065;49.632;8.346;2023-12-29T00:02:18;100565.03;;;11.54;75.64
19811;BME280;10065;49.632;8.346;2023-12-29T00:04:49;100560.25;;;11.58;75.38
19811;BME280;10065;49.632;8.346;2023-12-29T00:11:39;100564.19;;;11.54;74.75
19811;BME280;10065;49.632;8.346;2023-12-29T00:23:48;100554.66;;;11.43;75.21
19811;BME280;10065;49.632;8.346;2023-12-29T00:44:35;100539.53;;;11.26;74.24
19811;BME280;10065;49.632;8.346;2023-12-29T00:52:01;100545.16;;;11.23;74.28
19811;BME280;10065;49.632;8.346;2023-12-29T00:54:52;100545.16;;;11.23;74.21
19811;BME280;10065;49.632;8.346;2023-12-29T01:01:34;100533.31;;;11.35;73.77
19811;BME280;10065;49.632;8.346;2023-12-29T02:28:43;100495.69;;;11.22;70.32
19811;BME280;10065;49.632;8.346;2023-12-29T03:01:13;100482.84;;;11.00;69.54
19811;BME280;10065;49.632;8.346;2023-12-29T03:07:50;100478.78;;;11.05;69.61
19811;BME280;10065;49.632;8.346;2023-12-29T03:14:34;100500.06;;;10.96;70.49
19811;BME280;10065;49.632;8.346;2023-12-29T04:12:55;100453.38;;;11.20;71.13
19811;BME280;10065;49.632;8.346;2023-12-29T04:15:27;100450.22;;;11.17;71.39
19811;BME280;10065;49.632;8.346;2023-12-29T04:34:43;100459.09;;;11.08;70.75
19811;BME280;10065;49.632;8.346;2023-12-29T04:45:44;100447.25;;;11.02;69.98
19811;BME280;10065;49.632;8.346;2023-12-29T05:08:25;100448.28;;;11.09;69.64
19811;BME280;10065;49.632;8.346;2023-12-29T05:23:15;100438.44;;;11.19;69.84
19811;BME280;10065;49.632;8.346;2023-12-29T07:40:13;100454.53;;;11.61;68.48
19811;BME280;10065;49.632;8.346;2023-12-29T07:42:42;100454.22;;;11.64;67.84
19811;BME280;10065;49.632;8.346;2023-12-29T07:45:13;100463.25;;;11.72;67.75
19811;BME280;10065;49.632;8.346;2023-12-29T07:47:41;100456.19;;;11.80;67.60
19811;BME280;10065;49.632;8.346;2023-12-29T07:50:09;100457.50;;;11.76;66.98
19811;BME280;10065;49.632;8.346;2023-12-29T07:52:38;100454.38;;;11.81;67.06
19811;BME280;10065;49.632;8.346;2023-12-29T07:55:06;100462.50;;;11.79;66.71
19811;BME280;10065;49.632;8.346;2023-12-29T07:57:39;100457.19;;;11.79;66.51
19811;BME280;10065;49.632;8.346;2023-12-29T08:00:08;100458.53;;;11.83;66.46
19811;BME280;10065;49.632;8.346;2023-12-29T08:02:38;100456.72;;;11.84;65.67
19811;BME280;10065;49.632;8.346;2023-12-29T08:05:06;100460.41;;;11.91;65.73
19811;BME280;10065;49.632;8.346;2023-12-29T08:07:35;100467.41;;;11.92;65.64
19811;BME280;10065;49.632;8.346;2023-12-29T08:10:04;100473.06;;;11.97;65.69
19811;BME280;10065;49.632;8.346;2023-12-29T08:12:33;100465.44;;;11.94;65.44
19811;BME280;10065;49.632;8.346;2023-12-29T08:15:05;100478.88;;;11.92;64.99
19811;BME280;10065;49.632;8.346;2023-12-29T08:17:33;100470.75;;;11.94;64.88
19811;BME280;10065;49.632;8.346;2023-12-29T08:20:01;100467.25;;;11.93;64.68
19811;BME280;10065;49.632;8.346;2023-12-29T08:22:30;100473.28;;;12.03;64.44
19811;BME280;10065;49.632;8.346;2023-12-29T08:25:00;100472.59;;;12.01;64.58
19811;BME280;10065;49.632;8.346;2023-12-29T08:27:28;100467.00;;;12.04;64.63
19811;BME280;10065;49.632;8.346;2023-12-29T08:29:56;100478.81;;;12.10;64.62
19811;BME280;10065;49.632;8.346;2023-12-29T08:32:25;100473.84;;;12.15;64.68
19811;BME280;10065;49.632;8.346;2023-12-29T08:34:54;100483.47;;;12.16;64.78
19811;BME280;10065;49.632;8.346;2023-12-29T08:37:23;100485.63;;;12.13;65.22
19811;BME280;10065;49.632;8.346;2023-12-29T08:39:54;100470.19;;;12.16;65.26
19811;BME280;10065;49.632;8.346;2023-12-29T08:42:27;100468.91;;;12.20;65.89
19811;BME280;10065;49.632;8.346;2023-12-29T08:45:01;100469.88;;;12.19;66.46
19811;BME280;10065;49.632;8.346;2023-12-29T08:47:33;100467.56;;;12.24;66.37
19811;BME280;10065;49.632;8.346;2023-12-29T08:50:01;100465.13;;;12.31;66.04
19811;BME280;10065;49.632;8.346;2023-12-29T08:52:30;100463.28;;;12.31;66.12
19811;BME280;10065;49.632;8.346;2023-12-29T08:54:59;100466.28;;;12.28;66.02
19811;BME280;10065;49.632;8.346;2023-12-29T08:57:27;100467.25;;;12.27;66.37
19811;BME280;10065;49.632;8.346;2023-12-29T08:59:55;100457.63;;;12.26;66.83
19811;BME280;10065;49.632;8.346;2023-12-29T09:02:23;100459.97;;;12.29;66.74
19811;BME280;10065;49.632;8.346;2023-12-29T09:04:53;100456.63;;;12.27;66.76
19811;BME280;10065;49.632;8.346;2023-12-29T09:07:21;100463.63;;;12.28;66.74
19811;BME280;10065;49.632;8.346;2023-12-29T09:09:49;100466.97;;;12.30;66.72
19811;BME280;10065;49.632;8.346;2023-12-29T09:12:17;100460.00;;;12.37;66.27
19811;BME280;10065;49.632;8.346;2023-12-29T09:14:45;100458.47;;;12.35;66.09
19811;BME280;10065;49.632;8.346;2023-12-29T09:17:13;100457.66;;;12.34;66.22
19811;BME280;10065;49.632;8.346;2023-12-29T09:19:41;100467.31;;;12.43;66.01
19811;BME280;10065;49.632;8.346;2023-12-29T09:22:14;100463.38;;;12.48;65.69
19811;BME280;10065;49.632;8.346;2023-12-29T09:24:42;100470.38;;;12.57;65.31
19811;BME280;10065;49.632;8.346;2023-12-29T09:27:10;100456.78;;;12.68;65.19
19811;BME280;10065;49.632;8.346;2023-12-29T09:29:38;100453.63;;;12.64;65.17
19811;BME280;10065;49.632;8.346;2023-12-29T09:32:06;100466.41;;;12.69;65.37
19811;BME280;10065;49.632;8.346;2023-12-29T09:34:35;100460.47;;;12.75;64.99
19811;BME280;10065;49.632;8.346;2023-12-29T09:37:03;100459.63;;;12.74;65.06
19811;BME280;10065;49.632;8.346;2023-12-29T09:39:32;100461.09;;;12.69;65.10
19811;BME280;10065;49.632;8.346;2023-12-29T09:42:04;100462.09;;;12.68;65.46
19811;BME280;10065;49.632;8.346;2023-12-29T09:44:35;100450.78;;;12.66;65.83
19811;BME280;10065;49.632;8.346;2023-12-29T09:47:04;100460.41;;;12.67;66.03
19811;BME280;10065;49.632;8.346;2023-12-29T09:49:37;100459.94;;;12.71;65.82
19811;BME280;10065;49.632;8.346;2023-12-29T09:52:09;100459.63;;;12.66;66.03
19811;BME280;10065;49.632;8.346;2023-12-29T09:54:40;100449.00;;;12.74;65.86
19811;BME280;10065;49.632;8.346;2023-12-29T09:57:09;100454.63;;;12.71;65.87
19811;BME280;10065;49.632;8.346;2023-12-29T09:59:40;100451.81;;;12.73;65.83
19811;BME280;10065;49.632;8.346;2023-12-29T10:02:13;100456.78;;;12.76;66.11
19811;BME280;10065;49.632;8.346;2023-12-29T10:04:42;100453.28;;;12.75;65.50
19811;BME280;10065;49.632;8.346;2023-12-29T10:07:16;100466.28;;;12.78;65.28
19811;BME280;10065;49.632;8.346;2023-12-29T10:09:50;100467.78;;;12.73;64.82
19811;BME280;10065;49.632;8.346;2023-12-29T10:12:20;100465.59;;;12.68;65.35
19811;BME280;10065;49.632;8.346;2023-12-29T10:14:56;100456.44;;;12.71;65.22
19811;BME280;10065;49.632;8.346;2023-12-29T10:17:32;100460.78;;;12.72;65.57
19811;BME280;10065;49.632;8.346;2023-12-29T10:20:08;100456.47;;;12.79;65.16
19811;BME280;10065;49.632;8.346;2023-12-29T10:22:48;100466.28;;;12.87;65.19
19811;BME280;10065;49.632;8.346;2023-12-29T10:25:20;100457.97;;;12.81;64.81
19811;BME280;10065;49.632;8.346;2023-12-29T10:27:51;100454.81;;;12.78;64.67
19811;BME280;10065;49.632;8.346;2023-12-29T10:30:19;100462.09;;;12.76;64.78
19811;BME280;10065;49.632;8.346;2023-12-29T10:32:59;100468.09;;;12.70;64.93
19811;BME280;10065;49.632;8.346;2023-12-29T10:35:31;100466.41;;;12.69;65.19
19811;BME280;10065;49.632;8.346;2023-12-29T10:38:09;100469.44;;;12.74;65.24
19811;BME280;10065;49.632;8.346;2023-12-29T10:40:40;100455.78;;;12.77;65.39
19811;BME280;10065;49.632;8.346;2023-12-29T10:43:22;100466.41;;;12.69;64.87
19811;BME280;10065;49.632;8.346;2023-12-29T10:46:05;100458.94;;;12.64;64.66
19811;BME280;10065;49.632;8.346;2023-12-29T10:48:35;100448.28;;;12.64;64.45
19811;BME280;10065;49.632;8.346;2023-12-29T10:51:03;100447.13;;;12.67;64.42
19811;BME280;10065;49.632;8.346;2023-12-29T10:53:33;100442.00;;;12.73;64.15
19811;BME280;10065;49.632;8.346;2023-12-29T10:56:16;100441.63;;;12.68;64.53
19811;BME280;10065;49.632;8.346;2023-12-29T10:59:00;100425.22;;;12.73;64.43
19811;BME280;10065;49.632;8.346;2023-12-29T11:01:29;100433.69;;;12.85;64.23
19811;BME280;10065;49.632;8.346;2023-12-29T11:04:02;100428.72;;;12.98;63.46
19811;BME280;10065;49.632;8.346;2023-12-29T11:06:39;100425.56;;;13.02;63.11
19811;BME280;10065;49.632;8.346;2023-12-29T11:09:09;100422.75;;;13.12;62.68
19811;BME280;10065;49.632;8.346;2023-12-29T11:11:40;100409.00;;;13.16;62.59
19811;BME280;10065;49.632;8.346;2023-12-29T11:14:10;100408.31;;;13.14;62.06
19811;BME280;10065;49.632;8.346;2023-12-29T11:16:40;100424.63;;;13.52;61.03
19811;BME280;10065;49.632;8.346;2023-12-29T11:19:09;100418.00;;;14.03;59.79
19811;BME280;10065;49.632;8.346;2023-12-29T11:21:39;100424.19;;;14.04;59.30
19811;BME280;10065;49.632;8.346;2023-12-29T11:24:09;100440.53;;;13.92;58.74
19811;BME280;10065;49.632;8.346;2023-12-29T11:26:41;100426.88;;;13.87;59.19
19811;BME280;10065;49.632;8.346;2023-12-29T11:29:15;100428.56;;;13.72;59.55
19811;BME280;10065;49.632;8.346;2023-12-29T11:31:45;100425.59;;;13.67;59.97
19811;BME280;10065;49.632;8.346;2023-12-29T11:34:19;100426.44;;;13.51;60.43
19811;BME280;10065;49.632;8.346;2023-12-29T11:36:50;100426.94;;;13.55;60.46
19811;BME280;10065;49.632;8.346;2023-12-29T11:39:31;100433.91;;;13.56;60.15
19811;BME280;10065;49.632;8.346;2023-12-29T11:42:14;100433.63;;;13.43;60.79
19811;BME280;10065;49.632;8.346;2023-12-29T11:44:45;100440.25;;;13.47;60.69
19811;BME280;10065;49.632;8.346;2023-12-29T11:47:35;100434.09;;;13.46;61.00
19811;BME280;10065;49.632;8.346;2023-12-29T11:50:05;100428.59;;;13.48;61.24
19811;BME280;10065;49.632;8.346;2023-12-29T11:52:38;100428.63;;;13.40;61.24
19811;BME280;10065;49.632;8.346;2023-12-29T11:55:08;100425.94;;;13.32;61.26
19811;BME280;10065;49.632;8.346;2023-12-29T11:57:38;100417.97;;;13.32;61.43
19811;BME280;10065;49.632;8.346;2023-12-29T12:00:09;100421.31;;;13.34;61.39
19811;BME280;10065;49.632;8.346;2023-12-29T12:02:39;100425.63;;;13.35;61.14
19811;BME280;10065;49.632;8.346;2023-12-29T12:05:09;100413.63;;;13.31;61.43
19811;BME280;10065;49.632;8.346;2023-12-29T12:07:59;100421.63;;;13.23;61.07
19811;BME280;10065;49.632;8.346;2023-12-29T12:10:33;100414.16;;;13.18;61.56
19811;BME280;10065;49.632;8.346;2023-12-29T12:13:06;100411.97;;;13.30;61.91
19811;BME280;10065;49.632;8.346;2023-12-29T12:15:39;100420.94;;;13.29;61.76
19811;BME280;10065;49.632;8.346;2023-12-29T12:18:11;100416.44;;;13.37;62.00
19811;BME280;10065;49.632;8.346;2023-12-29T12:20:40;100416.97;;;13.41;62.26
19811;BME280;10065;49.632;8.346;2023-12-29T12:23:12;100409.97;;;13.48;61.86
19811;BME280;10065;49.632;8.346;2023-12-29T12:25:46;100404.78;;;13.54;62.05
19811;BME280;10065;49.632;8.346;2023-12-29T12:28:15;100397.28;;;13.66;62.00
19811;BME280;10065;49.632;8.346;2023-12-29T12:30:44;100407.44;;;13.71;61.43
19811;BME280;10065;49.632;8.346;2023-12-29T12:33:12;100401.22;;;13.86;61.46
19811;BME280;10065;49.632;8.346;2023-12-29T12:35:41;100398.91;;;13.83;61.48
19811;BME280;10065;49.632;8.346;2023-12-29T12:38:12;100405.22;;;13.90;61.51
19811;BME280;10065;49.632;8.346;2023-12-29T12:40:40;100401.84;;;14.05;61.19
19811;BME280;10065;49.632;8.346;2023-12-29T12:43:13;100400.84;;;14.06;60.83
19811;BME280;10065;49.632;8.346;2023-12-29T12:45:47;100403.81;;;14.11;60.59
19811;BME280;10065;49.632;8.346;2023-12-29T12:48:20;100398.50;;;14.03;60.45
19811;BME280;10065;49.632;8.346;2023-12-29T12:50:50;100385.84;;;14.05;60.82
19811;BME280;10065;49.632;8.346;2023-12-29T12:53:21;100396.97;;;14.08;60.85
19811;BME280;10065;49.632;8.346;2023-12-29T12:55:53;100396.84;;;14.02;61.43
19811;BME280;10065;49.632;8.346;2023-12-29T12:58:22;100397.53;;;13.96;61.73
19811;BME280;10065;49.632;8.346;2023-12-29T13:00:52;100400.38;;;13.94;61.70
19811;BME280;10065;49.632;8.346;2023-12-29T13:03:23;100400.34;;;14.02;61.76
19811;BME280;10065;49.632;8.346;2023-12-29T13:05:51;100402.00;;;14.03;62.27
19811;BME280;10065;49.632;8.346;2023-12-29T13:08:20;100402.00;;;14.03;62.63
19811;BME280;10065;49.632;8.346;2023-12-29T13:11:00;100399.53;;;13.93;63.26
19811;BME280;10065;49.632;8.346;2023-12-29T13:13:36;100389.53;;;13.96;62.99
19811;BME280;10065;49.632;8.346;2023-12-29T13:16:06;100392.41;;;13.86;63.63
19811;BME280;10065;49.632;8.346;2023-12-29T13:18:35;100386.56;;;13.82;64.01
19811;BME280;10065;49.632;8.346;2023-12-29T13:21:04;100383.09;;;13.74;64.34
19811;BME280;10065;49.632;8.346;2023-12-29T13:23:34;100384.44;;;13.78;64.73
19811;BME280;10065;49.632;8.346;2023-12-29T13:26:05;100378.94;;;13.79;64.53
19811;BME280;10065;49.632;8.346;2023-12-29T13:28:36;100374.25;;;13.81;64.65
19811;BME280;10065;49.632;8.346;2023-12-29T13:31:10;100372.63;;;13.80;65.00
19811;BME280;10065;49.632;8.346;2023-12-29T13:33:47;100365.41;;;13.81;65.15
19811;BME280;10065;49.632;8.346;2023-12-29T13:36:24;100364.78;;;13.79;65.03
19811;BME280;10065;49.632;8.346;2023-12-29T13:38:58;100371.94;;;13.78;64.95
19811;BME280;10065;49.632;8.346;2023-12-29T13:41:33;100373.94;;;13.76;64.62
19811;BME280;10065;49.632;8.346;2023-12-29T13:44:02;100370.94;;;13.79;64.48
19811;BME280;10065;49.632;8.346;2023-12-29T13:46:36;100369.78;;;13.74;64.61
19811;BME280;10065;49.632;8.346;2023-12-29T13:49:11;100362.13;;;13.71;64.57
19811;BME280;10065;49.632;8.346;2023-12-29T13:51:42;100365.97;;;13.68;64.03
19811;BME280;10065;49.632;8.346;2023-12-29T13:54:13;100360.97;;;13.65;63.85
19811;BME280;10065;49.632;8.346;2023-12-29T13:56:51;100362.66;;;13.58;64.24
19811;BME280;10065;49.632;8.346;2023-12-29T13:59:29;100357.84;;;13.62;63.84
19811;BME280;10065;49.632;8.346;2023-12-29T14:02:04;100364.31;;;13.59;63.80
19811;BME280;10065;49.632;8.346;2023-12-29T14:04:43;100355.69;;;13.49;63.89
19811;BME280;10065;49.632;8.346;2023-12-29T14:07:13;100366.50;;;13.47;64.19
19811;BME280;10065;49.632;8.346;2023-12-29T14:09:45;100372.81;;;13.46;64.47
19811;BME280;10065;49.632;8.346;2023-12-29T14:12:14;100369.88;;;13.33;65.00
19811;BME280;10065;49.632;8.346;2023-12-29T14:14:52;100369.03;;;13.33;65.09
19811;BME280;10065;49.632;8.346;2023-12-29T14:17:23;100375.50;;;13.30;65.48
19811;BME280;10065;49.632;8.346;2023-12-29T14:19:51;100378.53;;;13.27;65.59
19811;BME280;10065;49.632;8.346;2023-12-29T14:22:22;100387.00;;;13.31;65.37
19811;BME280;10065;49.632;8.346;2023-12-29T14:25:00;100381.19;;;13.27;65.70
19811;BME280;10065;49.632;8.346;2023-12-29T14:27:33;100389.66;;;13.23;65.86
19811;BME280;10065;49.632;8.346;2023-12-29T14:30:19;100387.34;;;13.19;65.82
19811;BME280;10065;49.632;8.346;2023-12-29T14:32:52;100398.66;;;13.13;65.93
19811;BME280;10065;49.632;8.346;2023-12-29T14:35:21;100394.13;;;12.98;65.50
19811;BME280;10065;49.632;8.346;2023-12-29T14:37:50;100387.31;;;12.95;65.17
19811;BME280;10065;49.632;8.346;2023-12-29T14:40:21;100392.63;;;12.95;65.55
19811;BME280;10065;49.632;8.346;2023-12-29T14:42:50;100393.63;;;12.86;65.24
19811;BME280;10065;49.632;8.346;2023-12-29T14:45:22;100380.00;;;12.89;65.42
19811;BME280;10065;49.632;8.346;2023-12-29T14:47:51;100381.31;;;12.85;64.78
19811;BME280;10065;49.632;8.346;2023-12-29T14:50:20;100382.97;;;12.86;64.85
19811;BME280;10065;49.632;8.346;2023-12-29T14:52:48;100382.13;;;12.86;65.03
19811;BME280;10065;49.632;8.346;2023-12-29T14:55:16;100388.28;;;12.86;65.28
19811;BME280;10065;49.632;8.346;2023-12-29T14:57:44;100396.63;;;12.83;65.45
19811;BME280;10065;49.632;8.346;2023-12-29T15:00:14;100375.50;;;12.90;65.38
19811;BME280;10065;49.632;8.346;2023-12-29T15:02:42;100374.00;;;12.87;65.10
19811;BME280;10065;49.632;8.346;2023-12-29T15:05:12;100375.34;;;12.83;65.47
19811;BME280;10065;49.632;8.346;2023-12-29T15:07:40;100367.00;;;12.78;65.83
19811;BME280;10065;49.632;8.346;2023-12-29T15:10:09;100362.34;;;12.72;65.56
19811;BME280;10065;49.632;8.346;2023-12-29T15:12:37;100375.78;;;12.54;65.44
19811;BME280;10065;49.632;8.346;2023-12-29T15:15:08;100364.59;;;12.42;65.67
19811;BME280;10065;49.632;8.346;2023-12-29T15:17:37;100352.66;;;12.38;66.14
19811;BME280;10065;49.632;8.346;2023-12-29T15:20:07;100348.47;;;12.36;66.47
19811;BME280;10065;49.632;8.346;2023-12-29T15:22:37;100354.25;;;12.31;66.87
19811;BME280;10065;49.632;8.346;2023-12-29T15:25:10;100345.28;;;12.24;67.09
19811;BME280;10065;49.632;8.346;2023-12-29T15:27:38;100353.41;;;12.23;67.11
19811;BME280;10065;49.632;8.346;2023-12-29T15:30:07;100333.63;;;12.17;67.27
19811;BME280;10065;49.632;8.346;2023-12-29T15:32:38;100332.13;;;12.15;66.96
19811;BME280;10065;49.632;8.346;2023-12-29T15:35:07;100339.06;;;12.07;67.22
19811;BME280;10065;49.632;8.346;2023-12-29T15:37:35;100340.59;;;12.10;67.15
19811;BME280;10065;49.632;8.346;2023-12-29T15:40:14;100348.25;;;12.13;67.02
19811;BME280;10065;49.632;8.346;2023-12-29T15:42:42;100348.25;;;12.13;66.74
19811;BME280;10065;49.632;8.346;2023-12-29T15:45:11;100340.09;;;12.15;66.94
19811;BME280;10065;49.632;8.346;2023-12-29T15:47:40;100333.94;;;12.14;66.52
19811;BME280;10065;49.632;8.346;2023-12-29T15:50:09;100337.94;;;12.10;66.47
19811;BME280;10065;49.632;8.346;2023-12-29T15:52:37;100344.72;;;12.04;66.41
19811;BME280;10065;49.632;8.346;2023-12-29T15:55:07;100340.06;;;12.06;66.71
19811;BME280;10065;49.632;8.346;2023-12-29T15:57:37;100347.88;;;12.08;66.46
19811;BME280;10065;49.632;8.346;2023-12-29T16:00:09;100342.09;;;12.13;66.47
19811;BME280;10065;49.632;8.346;2023-12-29T16:02:40;100341.56;;;12.09;66.29
19811;BME280;10065;49.632;8.346;2023-12-29T16:05:09;100342.56;;;12.08;66.40
19811;BME280;10065;49.632;8.346;2023-12-29T16:07:38;100340.41;;;12.03;66.47
19811;BME280;10065;49.632;8.346;2023-12-29T16:10:06;100337.75;;;12.03;66.33
19811;BME280;10065;49.632;8.346;2023-12-29T16:12:37;100337.91;;;12.02;66.49
19811;BME280;10065;49.632;8.346;2023-12-29T16:15:08;100335.09;;;12.03;66.40
19811;BME280;10065;49.632;8.346;2023-12-29T16:17:36;100330.25;;;11.99;66.28
19811;BME280;10065;49.632;8.346;2023-12-29T16:20:06;100325.59;;;12.01;66.60
19811;BME280;10065;49.632;8.346;2023-12-29T16:22:35;100329.94;;;12.02;66.04
19811;BME280;10065;49.632;8.346;2023-12-29T16:25:05;100334.25;;;12.03;66.26
19811;BME280;10065;49.632;8.346;2023-12-29T16:27:33;100340.56;;;12.02;66.10
19811;BME280;10065;49.632;8.346;2023-12-29T16:30:05;100339.19;;;11.98;66.31
19811;BME280;10065;49.632;8.346;2023-12-29T16:32:34;100341.22;;;11.96;66.46
19811;BME280;10065;49.632;8.346;2023-12-29T16:35:03;100343.53;;;11.99;66.30
19811;BME280;10065;49.632;8.346;2023-12-29T16:37:36;100334.56;;;12.00;66.04
19811;BME280;10065;49.632;8.346;2023-12-29T16:40:06;100332.94;;;12.07;65.87
19811;BME280;10065;49.632;8.346;2023-12-29T16:42:41;100332.63;;;12.10;65.55
19811;BME280;10065;49.632;8.346;2023-12-29T16:45:14;100327.47;;;12.17;65.74
19811;BME280;10065;49.632;8.346;2023-12-29T16:47:47;100336.28;;;12.17;65.32
19811;BME280;10065;49.632;8.346;2023-12-29T16:50:19;100329.47;;;12.23;65.17
19811;BME280;10065;49.632;8.346;2023-12-29T16:52:47;100336.66;;;12.22;64.97
19811;BME280;10065;49.632;8.346;2023-12-29T16:55:18;100319.88;;;12.22;64.82
19811;BME280;10065;49.632;8.346;2023-12-29T16:57:46;100324.34;;;12.21;64.63
19811;BME280;10065;49.632;8.346;2023-12-29T17:00:17;100317.38;;;12.20;64.63
19811;BME280;10065;49.632;8.346;2023-12-29T17:02:46;100312.06;;;12.20;64.86
19811;BME280;10065;49.632;8.346;2023-12-29T17:05:21;100314.88;;;12.19;64.62
19811;BME280;10065;49.632;8.346;2023-12-29T17:07:50;100321.84;;;12.20;64.79
19811;BME280;10065;49.632;8.346;2023-12-29T17:10:19;100317.69;;;12.17;64.88
19811;BME280;10065;49.632;8.346;2023-12-29T17:12:47;100312.69;;;12.14;64.83
19811;BME280;10065;49.632;8.346;2023-12-29T17:15:29;100313.03;;;12.11;64.87
19811;BME280;10065;49.632;8.346;2023-12-29T17:17:57;100313.03;;;12.11;64.78
19811;BME280;10065;49.632;8.346;2023-12-29T17:20:26;100313.34;;;12.08;64.69
19811;BME280;10065;49.632;8.346;2023-12-29T17:22:54;100318.16;;;12.04;65.11
19811;BME280;10065;49.632;8.346;2023-12-29T17:25:23;100315.50;;;12.04;65.07
19811;BME280;10065;49.632;8.346;2023-12-29T17:27:55;100323.13;;;12.07;65.00
19811;BME280;10065;49.632;8.346;2023-12-29T17:30:26;100312.50;;;12.07;65.03
19811;BME280;10065;49.632;8.346;2023-12-29T17:32:56;100318.97;;;12.05;64.66
19811;BME280;10065;49.632;8.346;2023-12-29T17:35:24;100317.97;;;12.06;64.86
19811;BME280;10065;49.632;8.346;2023-12-29T17:37:52;100318.97;;;12.05;64.78
19811;BME280;10065;49.632;8.346;2023-12-29T17:40:21;100322.94;;;12.01;64.92
19811;BME280;10065;49.632;8.346;2023-12-29T17:42:49;100315.97;;;12.00;65.21
19811;BME280;10065;49.632;8.346;2023-12-29T17:45:17;100320.13;;;12.02;65.06
19811;BME280;10065;49.632;8.346;2023-12-29T17:47:45;100317.09;;;11.97;65.19
19811;BME280;10065;49.632;8.346;2023-12-29T17:50:15;100322.75;;;11.94;65.66
19811;BME280;10065;49.632;8.346;2023-12-29T17:52:44;100325.59;;;12.01;65.70
19811;BME280;10065;49.632;8.346;2023-12-29T17:55:13;100317.63;;;12.01;65.79
19811;BME280;10065;49.632;8.346;2023-12-29T17:57:41;100316.94;;;11.99;65.77
19811;BME280;10065;49.632;8.346;2023-12-29T18:00:10;100328.59;;;12.06;65.86
19811;BME280;10065;49.632;8.346;2023-12-29T18:02:38;100334.59;;;12.08;65.66
19811;BME280;10065;49.632;8.346;2023-12-29T18:05:07;100327.63;;;12.07;65.57
19811;BME280;10065;49.632;8.346;2023-12-29T18:07:37;100327.97;;;12.04;65.55
19811;BME280;10065;49.632;8.346;2023-12-29T18:10:06;100323.28;;;12.06;65.52
19811;BME280;10065;49.632;8.346;2023-12-29T18:12:35;100319.31;;;12.10;65.69
19811;BME280;10065;49.632;8.346;2023-12-29T18:15:05;100323.66;;;12.11;65.54
19811;BME280;10065;49.632;8.346;2023-12-29T18:17:34;100318.66;;;12.08;65.67
19811;BME280;10065;49.632;8.346;2023-12-29T18:20:05;100309.88;;;12.16;65.70
19811;BME280;10065;49.632;8.346;2023-12-29T18:22:34;100309.88;;;12.16;65.48
19811;BME280;10065;49.632;8.346;2023-12-29T18:25:04;100306.03;;;12.10;65.77
19811;BME280;10065;49.632;8.346;2023-12-29T18:27:33;100314.16;;;12.09;65.77
19811;BME280;10065;49.632;8.346;2023-12-29T18:30:02;100310.53;;;12.10;65.90
19811;BME280;10065;49.632;8.346;2023-12-29T18:32:30;100327.47;;;12.09;65.93
19811;BME280;10065;49.632;8.346;2023-12-29T18:34:59;100306.50;;;12.05;66.01
19811;BME280;10065;49.632;8.346;2023-12-29T18:37:30;100310.84;;;12.06;66.20
19811;BME280;10065;49.632;8.346;2023-12-29T18:39:59;100324.81;;;12.09;66.33
19811;BME280;10065;49.632;8.346;2023-12-29T18:42:28;100329.28;;;12.08;66.43
19811;BME280;10065;49.632;8.346;2023-12-29T18:44:57;100325.63;;;12.09;66.40
19811;BME280;10065;49.632;8.346;2023-12-29T18:47:26;100331.28;;;12.14;66.50
19811;BME280;10065;49.632;8.346;2023-12-29T18:49:56;100330.63;;;12.12;66.48
19811;BME280;10065;49.632;8.346;2023-12-29T18:52:25;100327.97;;;12.04;66.49
19811;BME280;10065;49.632;8.346;2023-12-29T18:54:53;100329.78;;;12.03;66.88
19811;BME280;10065;49.632;8.346;2023-12-29T18:57:22;100328.59;;;12.06;67.03
19811;BME280;10065;49.632;8.346;2023-12-29T18:59:51;100326.94;;;12.05;66.80
19811;BME280;10065;49.632;8.346;2023-12-29T19:02:23;100337.41;;;12.06;66.81
19811;BME280;10065;49.632;8.346;2023-12-29T19:04:52;100334.59;;;12.08;66.88
19811;BME280;10065;49.632;8.346;2023-12-29T19:07:26;100347.56;;;12.11;66.48
19811;BME280;10065;49.632;8.346;2023-12-29T19:10:18;100335.13;;;12.12;66.25
19811;BME280;10065;49.632;8.346;2023-12-29T19:12:46;100343.59;;;12.15;66.24
19811;BME280;10065;49.632;8.346;2023-12-29T19:15:16;100350.41;;;12.18;66.06
19811;BME280;10065;49.632;8.346;2023-12-29T19:17:45;100341.28;;;12.12;66.26
19811;BME280;10065;49.632;8.346;2023-12-29T19:20:15;100349.72;;;12.07;66.24
19811;BME280;10065;49.632;8.346;2023-12-29T19:22:44;100355.19;;;12.14;66.12
19811;BME280;10065;49.632;8.346;2023-12-29T19:25:57;100348.75;;;12.17;66.48
